Airfield :
LOGIN :

Register | Disclaimer

   EN    FR    IT 

 










Legend :    VFR   Marginal VFR   IFR   Intensive IFR   Very Intensive IFR
Visi :
Ceiling :
>= 8 km
>= 3000ft
5 to 8 km
1000 to 3000 ft
1500m to 5 km
500 to 1000 ft
800 to 1500m
200 to 500 ft
< 800m
< 200 ft
Symbols :   Thunderstorms  Fog  Heavy snow  Heavy precipitations  Wind > 20 kt
SIGMETs :     Misc.  Thunderstorms  Icing  Turbulence  Mountain Waves  Volcanic Ashes






- Airport Elevation : 614 ft
- IATA code : CRL


EBCI - Charleroi

CURRENT METAR :
  • 101050Z 05003KT 030V090 6000 -RA FEW009 SCT013 OVC025 08/06 Q1011 NOSIG

EXPIRED METARs :
  • 101020Z 06004KT 4900 -RA BR FEW009 SCT025 OVC049 08/06 Q1012 BECMG 6000 -RA
  • 100950Z 03003KT 4500 -RA BR FEW010 SCT020 OVC025 07/06 Q1012 NOSIG
  • 100920Z VRB02KT 3300 -RA BR SCT006 BKN017 OVC025 07/06 Q1012 TEMPO BKN010
  • 100850Z 31002KT 2900 -RA BR SCT003 OVC020 07/06 Q1012 BECMG 3100 -RA BKN007
  • 100820Z VRB02KT 2600 -RADZ BR FEW003 SCT005 OVC007 07/06 Q1012 BECMG 3100 -RADZ

TAF TAF EBCI
Valid from the 10 at 06:00 until the 11 at 12:00 UTC


100510Z 1006/1112 14005KT 9999 SCT035
TEMPO 1008/1022 3500 RA RADZ BKN006
TEMPO 1022/1110 2500 DZRA BKN004



MET'MAP, your aeronautical weather chart ! - Copyright ORBIFLY December 2007 - Disclaimer

ORBIFLY MET'MAP TEAM :

Programming & Development : Alexandra Zaïnal
Concept & original design : Baudouin d'Aumeries
Assistance for programming : Marc-Olivier Méhu
Technical & hardware support : Manuel Goepfert

Contact : metmap@orbifly.com




SOURCES & CREDITS :

   NOAA